sensor_id;sensor_type;location;lat;lon;timestamp;pressure;altitude;pressure_sealevel;temperature;humidity
77639;BME280;66802;52.574;14.398;2023-06-10T03:01:47;101676.56;;;15.08;71.62
77639;BME280;66802;52.574;14.398;2023-06-10T03:04:13;101682.84;;;15.09;71.38
77639;BME280;66802;52.574;14.398;2023-06-10T03:06:40;101679.44;;;15.07;71.75
77639;BME280;66802;52.574;14.398;2023-06-10T03:09:08;101680.81;;;15.11;72.43
77639;BME280;66802;52.574;14.398;2023-06-10T03:11:33;101682.00;;;15.08;72.16
77639;BME280;66802;52.574;14.398;2023-06-10T03:13:59;101679.25;;;15.08;72.16
77639;BME280;66802;52.574;14.398;2023-06-10T03:16:24;101676.22;;;15.11;72.27
77639;BME280;66802;52.574;14.398;2023-06-10T03:18:53;101679.97;;;15.10;72.54
77639;BME280;66802;52.574;14.398;2023-06-10T03:21:19;101676.84;;;15.05;72.24
77639;BME280;66802;52.574;14.398;2023-06-10T03:23:45;101680.13;;;15.09;72.57
77639;BME280;66802;52.574;14.398;2023-06-10T03:26:11;101673.34;;;15.13;72.85
77639;BME280;66802;52.574;14.398;2023-06-10T03:28:39;101679.31;;;15.16;72.47
77639;BME280;66802;52.574;14.398;2023-06-10T03:31:05;101680.31;;;15.15;72.74
77639;BME280;66802;52.574;14.398;2023-06-10T03:33:30;101675.88;;;15.14;72.57
77639;BME280;66802;52.574;14.398;2023-06-10T03:35:56;101676.28;;;15.19;72.46
77639;BME280;66802;52.574;14.398;2023-06-10T03:38:22;101679.19;;;15.26;72.93
77639;BME280;66802;52.574;14.398;2023-06-10T03:40:47;101670.88;;;15.27;72.42
77639;BME280;66802;52.574;14.398;2023-06-10T03:43:13;101681.44;;;15.30;72.84
77639;BME280;66802;52.574;14.398;2023-06-10T03:45:38;101676.53;;;15.34;72.95
77639;BME280;66802;52.574;14.398;2023-06-10T03:48:04;101674.84;;;15.41;72.74
77639;BME280;66802;52.574;14.398;2023-06-10T03:50:31;101682.53;;;15.46;72.67
77639;BME280;66802;52.574;14.398;2023-06-10T03:52:57;101688.66;;;15.48;72.20
77639;BME280;66802;52.574;14.398;2023-06-10T03:55:23;101695.66;;;15.50;72.42
77639;BME280;66802;52.574;14.398;2023-06-10T03:57:49;101698.31;;;15.68;72.64
77639;BME280;66802;52.574;14.398;2023-06-10T04:00:15;101694.25;;;15.72;72.18
77639;BME280;66802;52.574;14.398;2023-06-10T04:02:43;101695.63;;;15.76;72.70
77639;BME280;66802;52.574;14.398;2023-06-10T04:05:12;101701.41;;;15.81;72.66
77639;BME280;66802;52.574;14.398;2023-06-10T04:07:37;101707.94;;;15.88;72.82
77639;BME280;66802;52.574;14.398;2023-06-10T04:10:06;101709.28;;;15.92;72.08
77639;BME280;66802;52.574;14.398;2023-06-10T04:12:32;101713.25;;;16.06;71.82
77639;BME280;66802;52.574;14.398;2023-06-10T04:14:58;101718.22;;;16.19;71.57
77639;BME280;66802;52.574;14.398;2023-06-10T04:17:25;101729.81;;;16.29;71.90
77639;BME280;66802;52.574;14.398;2023-06-10T04:19:50;101726.56;;;16.33;71.38
77639;BME280;66802;52.574;14.398;2023-06-10T04:22:16;101726.09;;;16.38;71.43
77639;BME280;66802;52.574;14.398;2023-06-10T04:24:43;101732.22;;;16.56;71.29
77639;BME280;66802;52.574;14.398;2023-06-10T04:27:09;101720.38;;;16.65;71.15
77639;BME280;66802;52.574;14.398;2023-06-10T04:29:35;101716.94;;;16.63;70.70
77639;BME280;66802;52.574;14.398;2023-06-10T04:32:01;101713.88;;;16.66;70.58
77639;BME280;66802;52.574;14.398;2023-06-10T04:34:27;101715.22;;;16.70;70.56
77639;BME280;66802;52.574;14.398;2023-06-10T04:36:53;101715.94;;;16.72;70.06
77639;BME280;66802;52.574;14.398;2023-06-10T04:39:18;101715.59;;;16.75;70.71
77639;BME280;66802;52.574;14.398;2023-06-10T04:41:45;101727.50;;;16.83;70.46
77639;BME280;66802;52.574;14.398;2023-06-10T04:44:11;101730.59;;;16.96;71.25
77639;BME280;66802;52.574;14.398;2023-06-10T04:46:38;101730.06;;;17.08;70.50
77639;BME280;66802;52.574;14.398;2023-06-10T04:49:03;101727.97;;;17.10;70.66
77639;BME280;66802;52.574;14.398;2023-06-10T04:51:30;101719.28;;;17.15;71.27
77639;BME280;66802;52.574;14.398;2023-06-10T04:53:57;101725.75;;;17.22;71.03
77639;BME280;66802;52.574;14.398;2023-06-10T04:56:22;101728.13;;;17.25;70.79
77639;BME280;66802;52.574;14.398;2023-06-10T04:58:48;101733.94;;;17.30;70.80
77639;BME280;66802;52.574;14.398;2023-06-10T05:01:13;101726.91;;;17.36;70.77
77639;BME280;66802;52.574;14.398;2023-06-10T05:03:39;101737.81;;;17.44;70.70
77639;BME280;66802;52.574;14.398;2023-06-10T05:06:05;101734.56;;;17.48;70.78
77639;BME280;66802;52.574;14.398;2023-06-10T05:08:30;101739.34;;;17.63;70.31
77639;BME280;66802;52.574;14.398;2023-06-10T05:10:56;101749.22;;;17.72;70.16
77639;BME280;66802;52.574;14.398;2023-06-10T05:13:21;101742.19;;;17.77;69.98
77639;BME280;66802;52.574;14.398;2023-06-10T05:15:47;101744.00;;;17.85;69.88
77639;BME280;66802;52.574;14.398;2023-06-10T05:18:13;101734.63;;;17.87;69.83
77639;BME280;66802;52.574;14.398;2023-06-10T05:20:39;101739.38;;;17.94;70.19
77639;BME280;66802;52.574;14.398;2023-06-10T05:23:04;101744.31;;;17.98;69.59
77639;BME280;66802;52.574;14.398;2023-06-10T05:25:31;101750.28;;;18.02;69.87
77639;BME280;66802;52.574;14.398;2023-06-10T05:27:58;101752.09;;;18.09;69.90
77639;BME280;66802;52.574;14.398;2023-06-10T05:30:23;101744.22;;;18.14;69.19
77639;BME280;66802;52.574;14.398;2023-06-10T05:32:49;101737.75;;;18.07;69.43
77639;BME280;66802;52.574;14.398;2023-06-10T05:35:16;101739.13;;;18.11;69.08
77639;BME280;66802;52.574;14.398;2023-06-10T05:37:42;101743.84;;;18.17;69.85
77639;BME280;66802;52.574;14.398;2023-06-10T05:40:08;101738.72;;;18.22;69.53
77639;BME280;66802;52.574;14.398;2023-06-10T05:42:34;101743.03;;;18.17;69.55
77639;BME280;66802;52.574;14.398;2023-06-10T05:44:59;101735.81;;;18.24;69.01
77639;BME280;66802;52.574;14.398;2023-06-10T05:47:25;101737.94;;;18.37;69.17
77639;BME280;66802;52.574;14.398;2023-06-10T05:49:50;101737.22;;;18.43;68.46
77639;BME280;66802;52.574;14.398;2023-06-10T05:52:17;101745.91;;;18.46;68.61
77639;BME280;66802;52.574;14.398;2023-06-10T05:54:43;101752.84;;;18.57;68.26
77639;BME280;66802;52.574;14.398;2023-06-10T05:57:09;101751.47;;;18.61;68.13
77639;BME280;66802;52.574;14.398;2023-06-10T05:59:36;101748.69;;;18.69;68.08
77639;BME280;66802;52.574;14.398;2023-06-10T06:02:01;101750.13;;;18.80;68.15
77639;BME280;66802;52.574;14.398;2023-06-10T06:04:27;101742.72;;;18.88;65.87
77639;BME280;66802;52.574;14.398;2023-06-10T06:06:52;101747.00;;;18.83;64.94
77639;BME280;66802;52.574;14.398;2023-06-10T06:09:18;101761.94;;;18.80;65.57
77639;BME280;66802;52.574;14.398;2023-06-10T06:11:43;101759.41;;;18.93;65.80
77639;BME280;66802;52.574;14.398;2023-06-10T06:14:09;101763.53;;;19.12;64.81
77639;BME280;66802;52.574;14.398;2023-06-10T06:16:34;101764.22;;;19.14;64.62
77639;BME280;66802;52.574;14.398;2023-06-10T06:19:00;101765.03;;;19.15;64.20
77639;BME280;66802;52.574;14.398;2023-06-10T06:21:26;101766.00;;;19.22;64.22
77639;BME280;66802;52.574;14.398;2023-06-10T06:23:51;101767.31;;;19.26;64.43
77639;BME280;66802;52.574;14.398;2023-06-10T06:26:17;101768.75;;;19.37;64.16
77639;BME280;66802;52.574;14.398;2023-06-10T06:28:42;101760.97;;;19.48;62.44
77639;BME280;66802;52.574;14.398;2023-06-10T06:31:08;101762.59;;;19.72;61.59
77639;BME280;66802;52.574;14.398;2023-06-10T06:33:34;101770.34;;;19.98;59.41
77639;BME280;66802;52.574;14.398;2023-06-10T06:35:59;101767.06;;;20.24;59.63
77639;BME280;66802;52.574;14.398;2023-06-10T06:38:26;101773.94;;;20.49;56.94
77639;BME280;66802;52.574;14.398;2023-06-10T06:40:51;101780.78;;;20.38;56.98
77639;BME280;66802;52.574;14.398;2023-06-10T06:43:17;101793.91;;;20.28;57.75
77639;BME280;66802;52.574;14.398;2023-06-10T06:45:44;101793.63;;;20.23;58.42
77639;BME280;66802;52.574;14.398;2023-06-10T06:48:11;101790.44;;;20.56;57.70
77639;BME280;66802;52.574;14.398;2023-06-10T06:50:37;101791.25;;;20.71;56.99
77639;BME280;66802;52.574;14.398;2023-06-10T06:53:03;101791.53;;;20.76;57.06
77639;BME280;66802;52.574;14.398;2023-06-10T06:55:29;101792.78;;;20.73;56.77
77639;BME280;66802;52.574;14.398;2023-06-10T06:57:54;101797.13;;;20.68;56.65
77639;BME280;66802;52.574;14.398;2023-06-10T07:00:21;101802.25;;;20.71;56.39
77639;BME280;66802;52.574;14.398;2023-06-10T07:02:46;101796.41;;;21.02;56.72
77639;BME280;66802;52.574;14.398;2023-06-10T07:05:12;101800.28;;;21.57;54.63
77639;BME280;66802;52.574;14.398;2023-06-10T07:07:37;101791.94;;;21.71;52.82
77639;BME280;66802;52.574;14.398;2023-06-10T07:10:03;101800.09;;;21.58;53.83
77639;BME280;66802;52.574;14.398;2023-06-10T07:12:29;101798.59;;;21.28;54.84
77639;BME280;66802;52.574;14.398;2023-06-10T07:14:55;101798.97;;;21.53;53.56
77639;BME280;66802;52.574;14.398;2023-06-10T07:17:20;101811.78;;;21.39;53.55
77639;BME280;66802;52.574;14.398;2023-06-10T07:19:46;101800.91;;;21.86;53.96
77639;BME280;66802;52.574;14.398;2023-06-10T07:22:11;101802.97;;;22.12;52.76
77639;BME280;66802;52.574;14.398;2023-06-10T07:24:37;101808.56;;;22.32;52.81
77639;BME280;66802;52.574;14.398;2023-06-10T07:27:03;101804.88;;;22.60;51.33
77639;BME280;66802;52.574;14.398;2023-06-10T07:29:28;101810.69;;;22.91;50.68
77639;BME280;66802;52.574;14.398;2023-06-10T07:31:54;101812.09;;;22.74;51.23
77639;BME280;66802;52.574;14.398;2023-06-10T07:34:19;101820.81;;;22.84;50.33
77639;BME280;66802;52.574;14.398;2023-06-10T07:36:45;101809.22;;;23.41;49.08
77639;BME280;66802;52.574;14.398;2023-06-10T07:39:10;101800.72;;;22.97;49.23
77639;BME280;66802;52.574;14.398;2023-06-10T07:41:36;101811.75;;;23.16;49.40
77639;BME280;66802;52.574;14.398;2023-06-10T07:44:02;101812.59;;;23.17;48.92
77639;BME280;66802;52.574;14.398;2023-06-10T07:46:27;101805.19;;;23.17;48.36
77639;BME280;66802;52.574;14.398;2023-06-10T07:48:54;101801.16;;;23.00;49.20
77639;BME280;66802;52.574;14.398;2023-06-10T07:51:20;101809.00;;;23.29;48.94
77639;BME280;66802;52.574;14.398;2023-06-10T07:53:46;101812.22;;;23.53;47.79
77639;BME280;66802;52.574;14.398;2023-06-10T07:56:12;101810.63;;;24.10;47.80
77639;BME280;66802;52.574;14.398;2023-06-10T07:58:37;101805.69;;;24.25;47.33
77639;BME280;66802;52.574;14.398;2023-06-10T08:01:03;101810.38;;;24.18;46.32
77639;BME280;66802;52.574;14.398;2023-06-10T08:03:29;101808.22;;;24.33;45.76
77639;BME280;66802;52.574;14.398;2023-06-10T08:05:54;101805.88;;;24.30;45.30
77639;BME280;66802;52.574;14.398;2023-06-10T08:08:20;101803.81;;;24.63;45.09
77639;BME280;66802;52.574;14.398;2023-06-10T08:10:45;101806.75;;;24.30;45.54
77639;BME280;66802;52.574;14.398;2023-06-10T08:13:11;101800.16;;;24.25;45.65
77639;BME280;66802;52.574;14.398;2023-06-10T08:15:36;101803.34;;;24.66;46.37
77639;BME280;66802;52.574;14.398;2023-06-10T08:18:02;101804.47;;;24.97;44.09
77639;BME280;66802;52.574;14.398;2023-06-10T08:20:27;101801.00;;;25.08;43.62
77639;BME280;66802;52.574;14.398;2023-06-10T08:22:53;101809.28;;;25.58;42.59
77639;BME280;66802;52.574;14.398;2023-06-10T08:25:18;101808.44;;;25.07;43.36
77639;BME280;66802;52.574;14.398;2023-06-10T08:27:44;101802.66;;;25.40;44.41
77639;BME280;66802;52.574;14.398;2023-06-10T08:30:11;101814.31;;;25.42;43.06
77639;BME280;66802;52.574;14.398;2023-06-10T08:32:38;101813.00;;;25.20;42.92
77639;BME280;66802;52.574;14.398;2023-06-10T08:35:04;101812.97;;;25.52;42.67
77639;BME280;66802;52.574;14.398;2023-06-10T08:37:29;101813.56;;;25.54;42.43
77639;BME280;66802;52.574;14.398;2023-06-10T08:39:55;101813.81;;;25.52;42.61
77639;BME280;66802;52.574;14.398;2023-06-10T08:45:05;101817.81;;;25.81;41.69
77639;BME280;66802;52.574;14.398;2023-06-10T08:47:35;101817.34;;;26.21;41.28
77639;BME280;66802;52.574;14.398;2023-06-10T08:50:03;101820.56;;;25.81;40.32
77639;BME280;66802;52.574;14.398;2023-06-10T08:52:35;101817.81;;;25.99;41.07
77639;BME280;66802;52.574;14.398;2023-06-10T08:55:15;101817.06;;;26.47;40.27
77639;BME280;66802;52.574;14.398;2023-06-10T08:57:42;101818.53;;;26.61;39.65
77639;BME280;66802;52.574;14.398;2023-06-10T09:00:10;101822.78;;;26.94;38.25
77639;BME280;66802;52.574;14.398;2023-06-10T09:02:36;101824.66;;;27.00;38.67
77639;BME280;66802;52.574;14.398;2023-06-10T09:05:02;101828.66;;;27.27;39.50
77639;BME280;66802;52.574;14.398;2023-06-10T09:07:30;101827.91;;;27.08;39.64
77639;BME280;66802;52.574;14.398;2023-06-10T09:09:57;101826.41;;;27.24;38.52
77639;BME280;66802;52.574;14.398;2023-06-10T09:12:24;101839.50;;;26.87;38.14
77639;BME280;66802;52.574;14.398;2023-06-10T09:14:53;101833.13;;;26.57;39.62
77639;BME280;66802;52.574;14.398;2023-06-10T09:17:18;101838.81;;;26.43;39.60
77639;BME280;66802;52.574;14.398;2023-06-10T09:19:44;101837.19;;;26.54;39.15
77639;BME280;66802;52.574;14.398;2023-06-10T09:22:11;101831.06;;;26.82;39.01
77639;BME280;66802;52.574;14.398;2023-06-10T09:24:36;101832.38;;;26.79;38.18
77639;BME280;66802;52.574;14.398;2023-06-10T09:27:06;101839.91;;;26.42;39.27
77639;BME280;66802;52.574;14.398;2023-06-10T09:32:18;101835.41;;;27.19;37.24
77639;BME280;66802;52.574;14.398;2023-06-10T09:34:44;101832.84;;;27.06;38.77
77639;BME280;66802;52.574;14.398;2023-06-10T09:37:10;101838.44;;;26.58;39.72
77639;BME280;66802;52.574;14.398;2023-06-10T09:39:38;101832.72;;;26.71;39.58
77639;BME280;66802;52.574;14.398;2023-06-10T09:42:24;101843.47;;;27.09;39.17
77639;BME280;66802;52.574;14.398;2023-06-10T09:44:52;101837.75;;;27.34;38.25
77639;BME280;66802;52.574;14.398;2023-06-10T09:47:21;101832.09;;;27.52;38.23
77639;BME280;66802;52.574;14.398;2023-06-10T09:49:51;101827.53;;;27.70;37.64
77639;BME280;66802;52.574;14.398;2023-06-10T09:52:24;101841.91;;;27.67;37.52
77639;BME280;66802;52.574;14.398;2023-06-10T09:54:51;101828.63;;;27.57;38.21
77639;BME280;66802;52.574;14.398;2023-06-10T09:57:18;101831.88;;;27.66;37.89
77639;BME280;66802;52.574;14.398;2023-06-10T09:59:45;101830.44;;;27.10;38.07
77639;BME280;66802;52.574;14.398;2023-06-10T10:02:18;101822.78;;;27.23;37.34
77639;BME280;66802;52.574;14.398;2023-06-10T10:04:44;101829.44;;;26.74;36.52
77639;BME280;66802;52.574;14.398;2023-06-10T10:07:10;101825.19;;;26.90;37.19
77639;BME280;66802;52.574;14.398;2023-06-10T10:09:40;101829.38;;;26.81;37.76
77639;BME280;66802;52.574;14.398;2023-06-10T10:12:10;101835.09;;;26.68;38.44
77639;BME280;66802;52.574;14.398;2023-06-10T10:14:38;101835.97;;;26.98;39.51
77639;BME280;66802;52.574;14.398;2023-06-10T10:17:09;101826.03;;;26.90;40.55
77639;BME280;66802;52.574;14.398;2023-06-10T10:19:43;101835.78;;;27.23;40.47
77639;BME280;66802;52.574;14.398;2023-06-10T10:22:24;101835.91;;;27.28;39.97
77639;BME280;66802;52.574;14.398;2023-06-10T10:24:57;101832.72;;;27.01;39.33
77639;BME280;66802;52.574;14.398;2023-06-10T10:27:30;101836.41;;;27.25;37.01
77639;BME280;66802;52.574;14.398;2023-06-10T10:29:59;101834.38;;;26.72;37.83
77639;BME280;66802;52.574;14.398;2023-06-10T10:32:37;101837.44;;;26.82;36.57
77639;BME280;66802;52.574;14.398;2023-06-10T10:35:16;101837.81;;;26.56;37.08
77639;BME280;66802;52.574;14.398;2023-06-10T10:37:43;101841.19;;;26.58;38.45
77639;BME280;66802;52.574;14.398;2023-06-10T10:40:11;101847.84;;;26.39;37.64
77639;BME280;66802;52.574;14.398;2023-06-10T10:42:39;101837.75;;;26.26;37.35
77639;BME280;66802;52.574;14.398;2023-06-10T10:45:07;101843.47;;;26.79;38.40
77639;BME280;66802;52.574;14.398;2023-06-10T10:47:33;101845.28;;;26.85;37.39
77639;BME280;66802;52.574;14.398;2023-06-10T10:50:00;101839.50;;;26.57;36.29
77639;BME280;66802;52.574;14.398;2023-06-10T10:52:48;101833.13;;;26.57;37.25
77639;BME280;66802;52.574;14.398;2023-06-10T10:55:16;101831.75;;;26.77;36.00
77639;BME280;66802;52.574;14.398;2023-06-10T10:57:42;101825.50;;;27.00;36.03
77639;BME280;66802;52.574;14.398;2023-06-10T11:00:09;101825.97;;;27.09;36.35
77639;BME280;66802;52.574;14.398;2023-06-10T11:02:43;101826.09;;;27.02;35.68
77639;BME280;66802;52.574;14.398;2023-06-10T11:05:11;101826.97;;;26.84;36.03
77639;BME280;66802;52.574;14.398;2023-06-10T11:07:37;101826.97;;;26.84;36.48
77639;BME280;66802;52.574;14.398;2023-06-10T11:10:06;101817.91;;;27.07;36.90
77639;BME280;66802;52.574;14.398;2023-06-10T11:15:22;101823.97;;;27.39;35.04
77639;BME280;66802;52.574;14.398;2023-06-10T11:31:22;101818.25;;;27.64;34.02
77639;BME280;66802;52.574;14.398;2023-06-10T11:33:53;101819.19;;;27.46;34.17
77639;BME280;66802;52.574;14.398;2023-06-10T11:36:19;101814.25;;;27.72;34.35
77639;BME280;66802;52.574;14.398;2023-06-10T11:38:45;101814.47;;;27.93;34.23
77639;BME280;66802;52.574;14.398;2023-06-10T11:41:14;101815.00;;;27.55;33.69
77639;BME280;66802;52.574;14.398;2023-06-10T11:43:46;101811.47;;;27.72;34.77
77639;BME280;66802;52.574;14.398;2023-06-10T11:46:12;101816.06;;;28.01;33.20
77639;BME280;66802;52.574;14.398;2023-06-10T11:48:38;101811.44;;;28.07;32.53
77639;BME280;66802;52.574;14.398;2023-06-10T11:51:07;101813.50;;;28.11;33.71
77639;BME280;66802;52.574;14.398;2023-06-10T11:53:33;101803.41;;;27.58;35.07
77639;BME280;66802;52.574;14.398;2023-06-10T11:55:59;101802.44;;;27.88;34.39
77639;BME280;66802;52.574;14.398;2023-06-10T11:58:25;101800.16;;;27.73;34.43
77639;BME280;66802;52.574;14.398;2023-06-10T12:00:53;101790.59;;;27.92;34.36
77639;BME280;66802;52.574;14.398;2023-06-10T12:03:20;101800.53;;;27.77;34.55
77639;BME280;66802;52.574;14.398;2023-06-10T12:08:27;101796.97;;;27.93;33.71
77639;BME280;66802;52.574;14.398;2023-06-10T12:10:53;101800.38;;;27.83;34.94
77639;BME280;66802;52.574;14.398;2023-06-10T12:13:20;101796.25;;;27.97;34.91
77639;BME280;66802;52.574;14.398;2023-06-10T12:15:46;101795.63;;;28.07;34.75
77639;BME280;66802;52.574;14.398;2023-06-10T12:18:23;101790.94;;;28.08;33.59
77639;BME280;66802;52.574;14.398;2023-06-10T12:20:49;101786.69;;;28.05;33.84
77639;BME280;66802;52.574;14.398;2023-06-10T12:23:17;101787.47;;;27.89;33.81
77639;BME280;66802;52.574;14.398;2023-06-10T12:25:51;101785.84;;;28.05;35.28
77639;BME280;66802;52.574;14.398;2023-06-10T12:28:24;101784.94;;;27.87;34.91
77639;BME280;66802;52.574;14.398;2023-06-10T12:30:50;101782.34;;;28.09;33.80
77639;BME280;66802;52.574;14.398;2023-06-10T12:33:21;101782.59;;;28.19;33.48
77639;BME280;66802;52.574;14.398;2023-06-10T12:35:51;101785.53;;;27.89;32.72
77639;BME280;66802;52.574;14.398;2023-06-10T12:38:25;101774.69;;;27.65;33.01
77639;BME280;66802;52.574;14.398;2023-06-10T12:41:01;101779.03;;;27.84;33.40
77639;BME280;66802;52.574;14.398;2023-06-10T12:43:26;101771.03;;;27.99;33.28
77639;BME280;66802;52.574;14.398;2023-06-10T12:45:52;101771.03;;;27.99;32.19
77639;BME280;66802;52.574;14.398;2023-06-10T12:48:23;101764.00;;;28.08;33.01
77639;BME280;66802;52.574;14.398;2023-06-10T12:50:57;101772.94;;;28.10;32.13
77639;BME280;66802;52.574;14.398;2023-06-10T12:53:24;101762.72;;;27.87;32.19
77639;BME280;66802;52.574;14.398;2023-06-10T12:55:51;101758.66;;;27.78;31.04
77639;BME280;66802;52.574;14.398;2023-06-10T12:58:16;101758.53;;;27.73;32.07
77639;BME280;66802;52.574;14.398;2023-06-10T13:00:42;101752.81;;;27.91;31.79
77639;BME280;66802;52.574;14.398;2023-06-10T13:03:09;101759.50;;;27.79;31.61
77639;BME280;66802;52.574;14.398;2023-06-10T13:05:36;101746.66;;;28.01;31.02
77639;BME280;66802;52.574;14.398;2023-06-10T13:08:05;101755.28;;;28.16;30.96
77639;BME280;66802;52.574;14.398;2023-06-10T13:10:32;101757.44;;;28.14;30.90
77639;BME280;66802;52.574;14.398;2023-06-10T13:13:00;101742.88;;;28.07;30.32
77639;BME280;66802;52.574;14.398;2023-06-10T13:15:25;101748.19;;;28.09;30.52
77639;BME280;66802;52.574;14.398;2023-06-10T13:17:51;101745.25;;;28.27;30.47
77639;BME280;66802;52.574;14.398;2023-06-10T13:20:18;101738.41;;;28.06;29.53
77639;BME280;66802;52.574;14.398;2023-06-10T13:22:44;101743.81;;;28.24;29.62
77639;BME280;66802;52.574;14.398;2023-06-10T13:25:10;101744.53;;;28.31;28.95
77639;BME280;66802;52.574;14.398;2023-06-10T13:27:36;101745.94;;;28.34;29.84
77639;BME280;66802;52.574;14.398;2023-06-10T13:30:07;101744.53;;;28.31;28.46
77639;BME280;66802;52.574;14.398;2023-06-10T13:32:34;101734.81;;;28.34;29.24
77639;BME280;66802;52.574;14.398;2023-06-10T13:35:00;101734.22;;;28.44;28.92
77639;BME280;66802;52.574;14.398;2023-06-10T13:37:25;101742.47;;;28.15;28.03
77639;BME280;66802;52.574;14.398;2023-06-10T13:39:51;101730.47;;;27.98;28.35
77639;BME280;66802;52.574;14.398;2023-06-10T13:42:17;101730.81;;;28.02;28.54
77639;BME280;66802;52.574;14.398;2023-06-10T13:44:43;101731.59;;;28.25;27.64
77639;BME280;66802;52.574;14.398;2023-06-10T13:47:09;101732.31;;;28.32;27.41
77639;BME280;66802;52.574;14.398;2023-06-10T13:49:35;101722.31;;;28.31;27.74
77639;BME280;66802;52.574;14.398;2023-06-10T13:52:01;101724.38;;;28.13;27.78
77639;BME280;66802;52.574;14.398;2023-06-10T13:54:27;101714.78;;;27.92;27.77
77639;BME280;66802;52.574;14.398;2023-06-10T13:56:52;101721.91;;;28.00;27.05
77639;BME280;66802;52.574;14.398;2023-06-10T13:59:19;101720.91;;;28.06;27.02
77639;BME280;66802;52.574;14.398;2023-06-10T14:01:44;101715.72;;;28.09;25.70
77639;BME280;66802;52.574;14.398;2023-06-10T14:04:10;101711.00;;;28.21;26.43
77639;BME280;66802;52.574;14.398;2023-06-10T14:06:35;101708.72;;;28.18;27.51
77639;BME280;66802;52.574;14.398;2023-06-10T14:09:01;101716.88;;;28.13;27.39
77639;BME280;66802;52.574;14.398;2023-06-10T14:11:26;101710.78;;;28.40;26.93
77639;BME280;66802;52.574;14.398;2023-06-10T14:13:52;101716.59;;;28.38;27.02
77639;BME280;66802;52.574;14.398;2023-06-10T14:16:17;101731.38;;;28.15;26.57
77639;BME280;66802;52.574;14.398;2023-06-10T14:18:43;101713.63;;;28.28;26.64
77639;BME280;66802;52.574;14.398;2023-06-10T14:21:08;101729.22;;;28.17;26.94
77639;BME280;66802;52.574;14.398;2023-06-10T14:23:34;101728.38;;;28.05;26.74
77639;BME280;66802;52.574;14.398;2023-06-10T14:26:00;101711.34;;;28.13;26.20
77639;BME280;66802;52.574;14.398;2023-06-10T14:28:27;101720.75;;;28.12;25.32
77639;BME280;66802;52.574;14.398;2023-06-10T14:30:53;101720.47;;;27.97;25.28
77639;BME280;66802;52.574;14.398;2023-06-10T14:33:18;101725.38;;;28.18;24.78
77639;BME280;66802;52.574;14.398;2023-06-10T14:35:44;101714.63;;;28.10;25.33
77639;BME280;66802;52.574;14.398;2023-06-10T14:38:09;101723.94;;;28.44;25.44
77639;BME280;66802;52.574;14.398;2023-06-10T14:40:35;101720.03;;;28.45;25.08
77639;BME280;66802;52.574;14.398;2023-06-10T14:43:01;101727.94;;;28.37;26.00
77639;BME280;66802;52.574;14.398;2023-06-10T14:45:29;101728.09;;;28.30;25.13
77639;BME280;66802;52.574;14.398;2023-06-10T14:47:54;101720.50;;;28.25;26.01
77639;BME280;66802;52.574;14.398;2023-06-10T14:50:20;101719.41;;;28.26;25.68
77639;BME280;66802;52.574;14.398;2023-06-10T14:52:46;101724.13;;;28.14;25.60
77639;BME280;66802;52.574;14.398;2023-06-10T14:55:12;101722.78;;;28.28;25.32
77639;BME280;66802;52.574;14.398;2023-06-10T14:57:37;101722.94;;;28.22;25.15
77639;BME280;66802;52.574;14.398;2023-06-10T15:00:03;101717.25;;;28.17;25.54
77639;BME280;66802;52.574;14.398;2023-06-10T15:02:29;101723.22;;;27.97;26.19
77639;BME280;66802;52.574;14.398;2023-06-10T15:04:54;101723.75;;;27.82;26.12
77639;BME280;66802;52.574;14.398;2023-06-10T15:07:20;101720.94;;;27.94;26.51
77639;BME280;66802;52.574;14.398;2023-06-10T15:09:46;101715.84;;;28.03;26.33
77639;BME280;66802;52.574;14.398;2023-06-10T15:12:11;101714.03;;;28.08;26.43
77639;BME280;66802;52.574;14.398;2023-06-10T15:14:37;101714.00;;;28.20;26.30
77639;BME280;66802;52.574;14.398;2023-06-10T15:17:04;101713.41;;;28.06;26.53
77639;BME280;66802;52.574;14.398;2023-06-10T15:19:30;101718.47;;;28.21;26.45
77639;BME280;66802;52.574;14.398;2023-06-10T15:21:56;101711.16;;;27.91;26.66
77639;BME280;66802;52.574;14.398;2023-06-10T15:24:21;101714.25;;;27.78;27.02
77639;BME280;66802;52.574;14.398;2023-06-10T15:26:47;101706.72;;;27.90;27.83
77639;BME280;66802;52.574;14.398;2023-06-10T15:29:12;101705.44;;;28.10;26.65
77639;BME280;66802;52.574;14.398;2023-06-10T15:31:38;101704.34;;;28.22;27.25
77639;BME280;66802;52.574;14.398;2023-06-10T15:34:04;101703.00;;;28.25;26.82
77639;BME280;66802;52.574;14.398;2023-06-10T15:36:30;101709.78;;;28.17;28.03
77639;BME280;66802;52.574;14.398;2023-06-10T15:39:04;101710.69;;;27.94;28.29
77639;BME280;66802;52.574;14.398;2023-06-10T15:41:32;101708.25;;;27.98;28.11
77639;BME280;66802;52.574;14.398;2023-06-10T15:43:58;101705.69;;;28.08;28.14
77639;BME280;66802;52.574;14.398;2023-06-10T15:46:28;101712.28;;;27.90;29.17
77639;BME280;66802;52.574;14.398;2023-06-10T15:48:54;101705.59;;;27.91;29.29
77639;BME280;66802;52.574;14.398;2023-06-10T15:51:19;101700.81;;;27.87;28.66
77639;BME280;66802;52.574;14.398;2023-06-10T15:53:45;101708.09;;;27.76;29.55
77639;BME280;66802;52.574;14.398;2023-06-10T15:56:13;101700.94;;;27.80;29.06
77639;BME280;66802;52.574;14.398;2023-06-10T15:58:39;101706.47;;;27.92;29.07
77639;BME280;66802;52.574;14.398;2023-06-10T16:01:32;101710.22;;;27.86;28.74
77639;BME280;66802;52.574;14.398;2023-06-10T16:03:58;101700.59;;;27.77;29.25